Time;durP1;ratioP1;P1;durP2;ratioP2;P2;SDS_P1;SDS_P2;PMS_P1;PMS_P2;Temp;Humidity;BMP_temperature;BMP_pressure;BME280_temperature;BME280_humidity;BME280_pressure;Samples;Min_cycle;Max_cycle;Signal;HPM_P1;HPM_P2
2022/05/24 00:02:15;;;;;;;7.85;4.25;;;;;;;;;;4979026;28;20169;-57
2022/05/24 00:04:42;;;;;;;6.88;3.97;;;;;;;;;;4985581;28;20134;-58
2022/05/24 00:07:08;;;;;;;7.97;4.13;;;;;;;;;;4986655;28;20341;-58
2022/05/24 00:09:34;;;;;;;12.63;4.00;;;;;;;;;;4986479;28;20050;-58
2022/05/24 00:12:01;;;;;;;8.40;4.18;;;;;;;;;;4986041;28;20078;-57
2022/05/24 00:17:12;;;;;;;9.95;4.00;;;;;;;;;;4986530;28;20519;-57
2022/05/24 00:19:38;;;;;;;6.95;4.05;;;;;;;;;;4985077;28;20381;-57
2022/05/24 00:22:05;;;;;;;8.18;4.50;;;;;;;;;;4985790;28;20476;-57
2022/05/24 00:24:31;;;;;;;8.40;3.88;;;;;;;;;;4985864;28;20055;-58
2022/05/24 00:26:57;;;;;;;9.73;3.70;;;;;;;;;;4986323;28;20073;-57
2022/05/24 00:29:24;;;;;;;7.95;4.30;;;;;;;;;;4985976;28;20038;-58
2022/05/24 00:31:50;;;;;;;8.07;3.63;;;;;;;;;;4985654;28;20050;-57
2022/05/24 00:34:16;;;;;;;6.45;3.47;;;;;;;;;;4985539;28;20057;-58
2022/05/24 00:36:42;;;;;;;5.03;3.20;;;;;;;;;;4986546;28;20042;-57
2022/05/24 00:39:08;;;;;;;7.35;3.78;;;;;;;;;;4986188;28;20474;-58
2022/05/24 00:41:39;;;;;;;7.35;3.95;;;;;;;;;;4984956;28;20045;-57
2022/05/24 00:44:07;;;;;;;6.40;3.42;;;;;;;;;;4985830;28;20153;-57
2022/05/24 00:46:33;;;;;;;;;;;;;;;;;;4986281;28;20096;-57
2022/05/24 00:49:05;;;;;;;5.45;3.33;;;;;;;;;;4985356;28;19953;-58
2022/05/24 00:51:39;;;;;;;4.75;2.90;;;;;;;;;;4985999;28;20125;-58
2022/05/24 00:54:05;;;;;;;5.85;3.13;;;;;;;;;;4985903;28;20081;-57
2022/05/24 00:56:38;;;;;;;4.40;2.65;;;;;;;;;;4985484;28;20515;-57
2022/05/24 00:59:06;;;;;;;9.18;3.05;;;;;;;;;;4985800;28;20137;-57
2022/05/24 01:01:38;;;;;;;8.73;2.80;;;;;;;;;;4985026;28;20043;-58
2022/05/24 01:04:04;;;;;;;5.47;3.15;;;;;;;;;;4985441;28;20699;-57
2022/05/24 01:06:31;;;;;;;5.93;2.88;;;;;;;;;;4985658;28;20038;-58
2022/05/24 01:08:59;;;;;;;9.10;3.45;;;;;;;;;;4985600;28;20134;-58
2022/05/24 01:11:25;;;;;;;;;;;;;;;;;;4986955;28;20046;-57
2022/05/24 01:13:53;;;;;;;4.88;2.88;;;;;;;;;;4989405;28;19922;-58
2022/05/24 01:16:20;;;;;;;6.10;3.00;;;;;;;;;;4988503;28;20062;-57
2022/05/24 01:18:46;;;;;;;6.05;2.83;;;;;;;;;;4989194;28;20038;-58
2022/05/24 01:21:14;;;;;;;8.73;3.40;;;;;;;;;;4990287;28;20042;-58
2022/05/24 01:23:48;;;;;;;8.57;3.40;;;;;;;;;;4989006;28;20038;-57
2022/05/24 01:26:21;;;;;;;5.43;3.70;;;;;;;;;;4989083;28;20062;-57
2022/05/24 01:28:51;;;;;;;9.57;4.35;;;;;;;;;;4989628;28;20042;-58
2022/05/24 01:31:18;;;;;;;11.63;4.65;;;;;;;;;;4988784;28;20085;-58
2022/05/24 01:36:32;;;;;;;10.10;5.20;;;;;;;;;;4969814;28;20082;-57
2022/05/24 01:39:01;;;;;;;9.60;5.95;;;;;;;;;;4969001;28;20050;-58
2022/05/24 01:41:27;;;;;;;;;;;;;;;;;;4970174;28;20042;-57
2022/05/24 01:43:54;;;;;;;12.82;6.57;;;;;;;;;;4970037;28;19929;-58
2022/05/24 01:46:22;;;;;;;10.82;6.90;;;;;;;;;;4969732;28;20043;-58
2022/05/24 01:48:48;;;;;;;;;;;;;;;;;;4981157;28;20049;-58
2022/05/24 01:51:17;;;;;;;11.38;6.40;;;;;;;;;;4989307;28;20009;-57
2022/05/24 01:53:45;;;;;;;13.15;7.60;;;;;;;;;;4989256;28;20061;-57
2022/05/24 01:56:14;;;;;;;14.73;8.43;;;;;;;;;;4988924;28;20069;-58
2022/05/24 01:58:42;;;;;;;17.48;8.23;;;;;;;;;;4988863;28;20048;-57
2022/05/24 02:01:12;;;;;;;13.63;9.00;;;;;;;;;;4988487;28;20081;-57
2022/05/24 02:03:39;;;;;;;14.95;8.38;;;;;;;;;;4987810;28;20385;-57
2022/05/24 02:06:18;;;;;;;18.50;8.90;;;;;;;;;;4988842;28;20058;-57
2022/05/24 02:08:44;;;;;;;13.93;9.85;;;;;;;;;;4988389;28;20571;-57
2022/05/24 02:11:10;;;;;;;16.77;9.95;;;;;;;;;;4987687;28;20129;-57
2022/05/24 02:13:40;;;;;;;21.33;10.25;;;;;;;;;;4988592;28;20610;-57
2022/05/24 02:16:13;;;;;;;14.75;9.43;;;;;;;;;;4988897;28;20389;-57
2022/05/24 02:18:42;;;;;;;15.40;10.38;;;;;;;;;;4987098;28;20046;-58
2022/05/24 02:21:08;;;;;;;17.20;10.15;;;;;;;;;;4988714;28;20050;-57
2022/05/24 02:23:42;;;;;;;18.63;9.85;;;;;;;;;;4988204;28;20048;-58
2022/05/24 02:26:09;;;;;;;19.70;10.70;;;;;;;;;;4987978;28;20065;-58
2022/05/24 02:28:36;;;;;;;17.95;10.50;;;;;;;;;;4987821;28;20060;-58
2022/05/24 02:31:04;;;;;;;21.33;10.27;;;;;;;;;;4988023;28;20831;-57
2022/05/24 02:33:32;;;;;;;17.60;10.32;;;;;;;;;;4987418;28;20042;-57
2022/05/24 02:35:58;;;;;;;23.35;11.32;;;;;;;;;;4988297;28;20046;-57
2022/05/24 02:38:25;;;;;;;20.83;11.27;;;;;;;;;;4986073;28;20052;-58
2022/05/24 02:43:37;;;;;;;26.65;12.82;;;;;;;;;;4988062;28;20057;-57
2022/05/24 02:46:03;;;;;;;28.20;13.18;;;;;;;;;;4987765;28;20053;-57
2022/05/24 02:48:29;;;;;;;25.23;14.07;;;;;;;;;;4987230;28;20062;-57
2022/05/24 02:50:55;;;;;;;29.67;15.18;;;;;;;;;;4988014;28;20052;-57
2022/05/24 02:53:21;;;;;;;28.85;15.02;;;;;;;;;;4988132;28;20047;-57
2022/05/24 02:55:48;;;;;;;29.30;15.65;;;;;;;;;;4987597;28;20489;-58
2022/05/24 02:58:14;;;;;;;26.70;15.02;;;;;;;;;;4987827;28;20046;-57
2022/05/24 03:00:41;;;;;;;29.75;17.13;;;;;;;;;;4987605;28;20050;-57
2022/05/24 03:03:07;;;;;;;32.03;17.13;;;;;;;;;;4987000;28;20096;-57
2022/05/24 03:05:34;;;;;;;30.45;17.10;;;;;;;;;;4987662;28;20484;-58
2022/05/24 03:10:45;;;;;;;34.28;17.30;;;;;;;;;;4987925;28;20477;-58
2022/05/24 03:15:56;;;;;;;47.42;18.48;;;;;;;;;;4987147;28;20043;-57
2022/05/24 03:18:23;;;;;;;35.72;19.33;;;;;;;;;;4986708;28;20088;-58
2022/05/24 03:20:49;;;;;;;31.58;17.90;;;;;;;;;;4987323;28;20038;-57
2022/05/24 03:23:16;;;;;;;38.33;18.83;;;;;;;;;;4987971;28;20057;-58
2022/05/24 03:25:42;;;;;;;32.97;19.65;;;;;;;;;;4986670;28;20088;-57
2022/05/24 03:28:09;;;;;;;36.97;18.75;;;;;;;;;;4987447;28;20603;-57
2022/05/24 03:30:42;;;;;;;32.88;18.92;;;;;;;;;;4987068;28;20054;-57
2022/05/24 03:33:08;;;;;;;33.47;19.25;;;;;;;;;;4986286;28;20054;-57
2022/05/24 03:35:34;;;;;;;35.67;19.58;;;;;;;;;;4985517;28;20109;-58
2022/05/24 03:38:00;;;;;;;37.05;19.48;;;;;;;;;;4987042;28;20385;-57
2022/05/24 03:40:26;;;;;;;32.13;18.92;;;;;;;;;;4985537;28;20054;-57
2022/05/24 03:42:54;;;;;;;30.92;19.15;;;;;;;;;;4986978;28;20042;-58
2022/05/24 03:45:21;;;;;;;31.05;17.70;;;;;;;;;;4986879;28;20749;-57
2022/05/24 03:47:47;;;;;;;28.45;17.60;;;;;;;;;;4985671;28;20079;-60
2022/05/24 03:50:14;;;;;;;28.27;18.08;;;;;;;;;;4986883;28;20500;-58
2022/05/24 03:52:40;;;;;;;31.98;17.75;;;;;;;;;;4986692;28;20046;-57
2022/05/24 03:55:07;;;;;;;28.55;18.05;;;;;;;;;;4986637;28;20057;-57
2022/05/24 04:00:20;;;;;;;29.63;16.65;;;;;;;;;;4986328;28;20104;-58
2022/05/24 04:02:46;;;;;;;29.98;17.58;;;;;;;;;;4985879;28;20042;-58
2022/05/24 04:05:12;;;;;;;28.60;16.50;;;;;;;;;;4987023;28;20042;-58
2022/05/24 04:07:39;;;;;;;26.58;17.20;;;;;;;;;;4986350;28;20048;-57
2022/05/24 04:10:06;;;;;;;26.90;16.27;;;;;;;;;;4986356;28;20408;-57
2022/05/24 04:12:33;;;;;;;27.70;16.02;;;;;;;;;;4986337;28;20467;-57
2022/05/24 04:14:59;;;;;;;29.45;16.15;;;;;;;;;;4986315;28;20050;-58
2022/05/24 04:17:25;;;;;;;25.02;15.80;;;;;;;;;;4985265;28;20400;-57
2022/05/24 04:19:51;;;;;;;28.58;15.85;;;;;;;;;;4986214;28;20050;-58
2022/05/24 04:22:17;;;;;;;27.13;16.15;;;;;;;;;;4982802;28;20572;-58
2022/05/24 04:24:43;;;;;;;28.20;16.60;;;;;;;;;;4965997;28;20050;-57
2022/05/24 04:27:09;;;;;;;29.38;15.90;;;;;;;;;;4966751;28;20050;-57
2022/05/24 04:29:39;;;;;;;27.00;14.93;;;;;;;;;;4965836;28;20082;-57
2022/05/24 04:32:05;;;;;;;25.42;15.15;;;;;;;;;;4965990;28;20508;-58
2022/05/24 04:34:31;;;;;;;25.10;14.60;;;;;;;;;;4966551;28;20101;-57
2022/05/24 04:36:57;;;;;;;26.42;15.40;;;;;;;;;;4966890;28;20042;-57
2022/05/24 04:39:23;;;;;;;25.13;16.20;;;;;;;;;;4966399;28;20038;-58
2022/05/24 04:44:34;;;;;;;23.67;15.20;;;;;;;;;;4966655;28;20046;-57
2022/05/24 04:47:07;;;;;;;29.02;14.73;;;;;;;;;;4965262;28;20053;-57
2022/05/24 04:49:33;;;;;;;32.22;17.17;;;;;;;;;;4966665;28;20057;-58
2022/05/24 04:51:59;;;;;;;34.17;15.88;;;;;;;;;;4966732;28;20478;-57
2022/05/24 04:54:26;;;;;;;34.13;16.70;;;;;;;;;;4966386;28;20051;-58
2022/05/24 04:56:52;;;;;;;36.90;17.52;;;;;;;;;;4966346;28;20047;-57
2022/05/24 04:59:18;;;;;;;30.33;17.85;;;;;;;;;;4965830;28;20043;-58
2022/05/24 05:01:45;;;;;;;40.50;19.63;;;;;;;;;;4966647;28;20437;-59
2022/05/24 05:04:11;;;;;;;38.80;17.70;;;;;;;;;;4966572;28;20047;-58
2022/05/24 05:06:38;;;;;;;36.33;17.02;;;;;;;;;;4970039;28;20046;-58
2022/05/24 05:09:04;;;;;;;34.03;18.10;;;;;;;;;;4979516;28;20058;-58
2022/05/24 05:11:30;;;;;;;31.58;16.45;;;;;;;;;;4976454;28;20441;-57
2022/05/24 05:13:56;;;;;;;29.30;16.65;;;;;;;;;;4985386;28;20092;-58
2022/05/24 05:16:22;;;;;;;36.05;18.00;;;;;;;;;;4979648;28;20050;-57
2022/05/24 05:18:48;;;;;;;38.97;18.98;;;;;;;;;;4965414;28;20047;-58
2022/05/24 05:21:14;;;;;;;37.63;19.00;;;;;;;;;;4971020;28;20067;-57
2022/05/24 05:23:41;;;;;;;33.78;17.92;;;;;;;;;;4972471;28;20054;-58
2022/05/24 05:26:07;;;;;;;40.05;18.73;;;;;;;;;;4981901;28;20058;-59
2022/05/24 05:28:33;;;;;;;39.67;17.25;;;;;;;;;;4984719;28;20523;-59
2022/05/24 05:31:19;;;;;;;31.50;17.15;;;;;;;;;;4983452;28;20043;-59
2022/05/24 05:33:49;;;;;;;30.95;16.60;;;;;;;;;;4981988;28;20050;-60
2022/05/24 05:36:16;;;;;;;29.10;15.15;;;;;;;;;;4983637;28;20046;-60
2022/05/24 05:38:48;;;;;;;30.13;14.02;;;;;;;;;;4983805;28;20034;-59
2022/05/24 05:41:16;;;;;;;29.10;14.60;;;;;;;;;;4979554;28;20163;-59
2022/05/24 05:43:42;;;;;;;24.20;13.32;;;;;;;;;;4983987;28;20117;-60
2022/05/24 05:46:09;;;;;;;23.73;13.05;;;;;;;;;;4973802;28;21427;-59
2022/05/24 05:48:36;;;;;;;26.92;13.73;;;;;;;;;;4981241;28;20104;-59
2022/05/24 05:51:02;;;;;;;25.52;13.20;;;;;;;;;;4975056;28;20560;-60
2022/05/24 05:53:28;;;;;;;23.08;12.88;;;;;;;;;;4971575;28;20047;-59
2022/05/24 05:55:55;;;;;;;28.05;13.40;;;;;;;;;;4967968;28;20105;-60
2022/05/24 05:58:21;;;;;;;28.75;13.60;;;;;;;;;;4979764;28;20114;-59
2022/05/24 06:00:48;;;;;;;26.05;13.05;;;;;;;;;;4987967;28;20054;-58
2022/05/24 06:03:15;;;;;;;25.75;13.43;;;;;;;;;;4985778;28;20078;-57
2022/05/24 06:05:41;;;;;;;22.33;12.90;;;;;;;;;;4983686;28;20054;-57
2022/05/24 06:08:08;;;;;;;27.00;13.30;;;;;;;;;;4987542;28;20045;-57
2022/05/24 06:10:36;;;;;;;24.25;12.95;;;;;;;;;;4986742;28;20050;-57
2022/05/24 06:13:03;;;;;;;25.77;12.77;;;;;;;;;;4986572;28;20496;-57
2022/05/24 06:15:30;;;;;;;31.58;12.32;;;;;;;;;;4985900;28;20042;-57
2022/05/24 06:17:57;;;;;;;26.50;13.38;;;;;;;;;;4985564;28;20054;-57
2022/05/24 06:20:25;;;;;;;30.70;13.32;;;;;;;;;;4983542;28;20117;-57
2022/05/24 06:22:54;;;;;;;34.88;13.52;;;;;;;;;;4969485;28;20046;-57
2022/05/24 06:25:21;;;;;;;24.17;12.43;;;;;;;;;;4968490;28;20059;-57
2022/05/24 06:27:47;;;;;;;23.63;11.43;;;;;;;;;;4968809;28;20047;-58
2022/05/24 06:30:14;;;;;;;27.88;11.82;;;;;;;;;;4973406;28;20060;-57
2022/05/24 06:32:40;;;;;;;25.13;10.57;;;;;;;;;;4986722;28;20412;-57
2022/05/24 06:35:07;;;;;;;24.67;11.60;;;;;;;;;;4987225;28;20057;-57
2022/05/24 06:37:33;;;;;;;23.38;11.65;;;;;;;;;;4984540;28;20125;-57
2022/05/24 06:39:59;;;;;;;21.67;11.90;;;;;;;;;;4972650;28;20100;-57
2022/05/24 06:42:25;;;;;;;23.88;11.73;;;;;;;;;;4979484;28;20039;-57
2022/05/24 06:44:51;;;;;;;23.10;11.55;;;;;;;;;;4968887;28;20043;-57
2022/05/24 06:47:17;;;;;;;23.33;11.70;;;;;;;;;;4967663;28;20101;-57
2022/05/24 06:49:44;;;;;;;20.92;12.02;;;;;;;;;;4972924;28;20070;-57
2022/05/24 06:52:10;;;;;;;23.42;12.48;;;;;;;;;;4985972;28;20077;-57
2022/05/24 06:54:36;;;;;;;30.58;17.60;;;;;;;;;;4986340;28;20491;-57
2022/05/24 06:57:03;;;;;;;23.00;12.35;;;;;;;;;;4985963;28;20396;-56
2022/05/24 07:02:29;;;;;;;21.92;11.63;;;;;;;;;;4968373;28;20046;-57
2022/05/24 07:04:57;;;;;;;18.65;10.98;;;;;;;;;;4968427;28;20042;-57
2022/05/24 07:07:24;;;;;;;25.63;11.77;;;;;;;;;;4968187;28;20362;-57
2022/05/24 07:09:51;;;;;;;20.70;11.02;;;;;;;;;;4975218;28;20050;-57
2022/05/24 07:12:18;;;;;;;57.22;33.15;;;;;;;;;;4975723;28;20038;-59
2022/05/24 07:14:44;;;;;;;28.55;10.82;;;;;;;;;;4968612;28;20174;-57
2022/05/24 07:17:10;;;;;;;23.92;11.73;;;;;;;;;;4967056;28;20069;-57
2022/05/24 07:19:38;;;;;;;16.60;10.63;;;;;;;;;;4976120;28;20089;-56
2022/05/24 07:22:05;;;;;;;23.67;9.93;;;;;;;;;;4986990;28;20100;-57
2022/05/24 07:24:31;;;;;;;19.35;10.65;;;;;;;;;;4979710;28;20038;-57
2022/05/24 07:26:58;;;;;;;22.65;10.48;;;;;;;;;;4975221;28;20089;-57
2022/05/24 07:29:24;;;;;;;20.90;10.63;;;;;;;;;;4974944;28;20065;-57
2022/05/24 07:31:50;;;;;;;22.55;10.00;;;;;;;;;;4967314;28;20485;-57
2022/05/24 07:34:17;;;;;;;19.45;11.35;;;;;;;;;;4980892;28;20051;-57
2022/05/24 07:36:43;;;;;;;18.23;10.32;;;;;;;;;;4981301;28;20050;-57
2022/05/24 07:39:09;;;;;;;23.90;10.13;;;;;;;;;;4975641;28;20050;-57
2022/05/24 07:47:07;;;;;;;16.95;10.48;;;;;;;;;;4984987;28;20073;-57
2022/05/24 07:49:33;;;;;;;18.88;11.23;;;;;;;;;;4972527;28;20405;-57
2022/05/24 07:52:00;;;;;;;31.17;10.93;;;;;;;;;;4967757;28;20093;-57
2022/05/24 07:54:26;;;;;;;21.17;10.63;;;;;;;;;;4967590;28;20574;-57
2022/05/24 07:56:52;;;;;;;23.52;10.88;;;;;;;;;;4967686;28;20043;-57
2022/05/24 07:59:18;;;;;;;24.48;9.60;;;;;;;;;;4979745;28;20042;-57
2022/05/24 08:01:45;;;;;;;21.48;10.40;;;;;;;;;;4984998;28;20500;-57
2022/05/24 08:04:11;;;;;;;20.00;9.90;;;;;;;;;;4985212;28;20038;-57
2022/05/24 08:06:37;;;;;;;21.17;10.13;;;;;;;;;;4985484;28;20567;-57
2022/05/24 08:09:04;;;;;;;22.35;11.00;;;;;;;;;;4973514;28;20149;-57
2022/05/24 08:11:30;;;;;;;22.42;11.20;;;;;;;;;;4967411;28;20043;-57
2022/05/24 08:13:59;;;;;;;19.67;10.13;;;;;;;;;;4981708;28;20128;-57
2022/05/24 08:16:25;;;;;;;22.83;10.80;;;;;;;;;;4984215;28;20125;-57
2022/05/24 08:18:52;;;;;;;21.73;9.77;;;;;;;;;;4972674;28;20039;-57
2022/05/24 08:21:18;;;;;;;17.63;9.98;;;;;;;;;;4967935;28;20055;-57
2022/05/24 08:23:44;;;;;;;22.15;9.82;;;;;;;;;;4967363;28;20481;-56
2022/05/24 08:26:12;;;;;;;31.30;10.88;;;;;;;;;;4966671;28;20062;-56
2022/05/24 08:28:41;;;;;;;21.70;9.88;;;;;;;;;;4979099;28;20054;-57
2022/05/24 08:31:08;;;;;;;15.02;8.65;;;;;;;;;;4984379;28;20140;-57
2022/05/24 08:33:34;;;;;;;16.92;8.52;;;;;;;;;;4985002;28;20092;-57
2022/05/24 08:36:00;;;;;;;21.35;9.90;;;;;;;;;;4984818;28;20042;-57
2022/05/24 08:38:28;;;;;;;18.90;8.85;;;;;;;;;;4976921;28;20045;-57
2022/05/24 08:40:56;;;;;;;13.10;7.95;;;;;;;;;;4985114;28;20046;-57
2022/05/24 08:43:23;;;;;;;11.75;7.70;;;;;;;;;;4984517;28;20042;-56
2022/05/24 08:48:41;;;;;;;16.52;7.60;;;;;;;;;;4980663;28;20074;-57
2022/05/24 08:51:18;;;;;;;11.20;6.22;;;;;;;;;;4985047;28;20540;-57
2022/05/24 08:53:46;;;;;;;9.00;5.53;;;;;;;;;;4978678;28;20440;-57
2022/05/24 08:56:17;;;;;;;12.07;5.50;;;;;;;;;;4985162;28;20042;-57
2022/05/24 08:58:45;;;;;;;13.82;5.95;;;;;;;;;;4983820;28;20054;-57
2022/05/24 09:01:21;;;;;;;11.82;5.35;;;;;;;;;;4984062;28;20121;-57
2022/05/24 09:03:47;;;;;;;9.65;4.57;;;;;;;;;;4971377;28;20050;-58
2022/05/24 09:06:30;;;;;;;7.70;3.92;;;;;;;;;;4967119;28;20053;-57
2022/05/24 09:09:14;;;;;;;13.38;5.10;;;;;;;;;;4966522;28;20094;-57
2022/05/24 09:11:47;;;;;;;13.68;4.93;;;;;;;;;;4981711;28;20122;-56
2022/05/24 09:14:18;;;;;;;9.73;4.53;;;;;;;;;;4966795;28;20097;-57
2022/05/24 09:17:00;;;;;;;11.88;4.88;;;;;;;;;;4977913;28;20455;-56
2022/05/24 09:19:28;;;;;;;11.38;4.82;;;;;;;;;;4981633;28;20046;-56
2022/05/24 09:21:54;;;;;;;10.77;5.10;;;;;;;;;;4969328;28;20054;-57
2022/05/24 09:24:23;;;;;;;8.55;5.05;;;;;;;;;;4984191;28;20050;-57
2022/05/24 09:27:03;;;;;;;9.35;5.40;;;;;;;;;;4983740;28;20045;-56
2022/05/24 09:29:31;;;;;;;10.65;5.47;;;;;;;;;;4983934;28;20046;-57
2022/05/24 09:31:58;;;;;;;8.98;5.32;;;;;;;;;;4979515;28;20058;-57
2022/05/24 09:34:28;;;;;;;12.70;5.00;;;;;;;;;;4969963;28;20488;-58
2022/05/24 09:36:56;;;;;;;10.52;5.28;;;;;;;;;;4971291;28;20110;-57
2022/05/24 09:39:25;;;;;;;6.72;5.13;;;;;;;;;;4968011;28;20082;-58
2022/05/24 09:41:51;;;;;;;;;;;;;;;;;;4975629;28;20131;-58
2022/05/24 09:44:18;;;;;;;15.48;5.63;;;;;;;;;;4988045;28;20411;-59
2022/05/24 09:46:46;;;;;;;6.32;4.53;;;;;;;;;;4988155;28;20480;-57
2022/05/24 09:49:23;;;;;;;10.52;5.07;;;;;;;;;;4970150;28;20047;-57
2022/05/24 09:51:50;;;;;;;13.13;5.05;;;;;;;;;;4973617;28;20070;-58
2022/05/24 09:54:20;;;;;;;16.70;8.98;;;;;;;;;;4970196;28;20094;-57
2022/05/24 09:57:13;;;;;;;11.75;4.90;;;;;;;;;;4969832;28;20094;-57
2022/05/24 09:59:41;;;;;;;10.98;5.15;;;;;;;;;;4985041;28;20116;-58
2022/05/24 10:02:26;;;;;;;12.32;5.82;;;;;;;;;;4976488;28;20374;-58
2022/05/24 10:04:54;;;;;;;11.18;5.32;;;;;;;;;;4985874;28;20034;-58
2022/05/24 10:07:23;;;;;;;13.00;5.05;;;;;;;;;;4986942;28;20042;-58
2022/05/24 10:09:54;;;;;;;8.25;4.55;;;;;;;;;;4969592;28;20093;-58
2022/05/24 10:12:21;;;;;;;11.05;4.60;;;;;;;;;;4973394;28;20121;-58
2022/05/24 10:14:56;;;;;;;9.38;4.15;;;;;;;;;;4969674;28;20069;-58
2022/05/24 10:17:32;;;;;;;5.80;3.70;;;;;;;;;;4968797;28;20108;-57
2022/05/24 10:20:02;;;;;;;6.72;2.10;;;;;;;;;;4987282;28;20053;-58
2022/05/24 10:22:37;;;;;;;8.25;2.20;;;;;;;;;;4970601;28;20526;-58
2022/05/24 10:25:15;;;;;;;5.53;2.20;;;;;;;;;;4968987;28;20137;-58
2022/05/24 10:27:47;;;;;;;4.22;0.90;;;;;;;;;;4968991;28;20134;-58
2022/05/24 10:30:31;;;;;;;2.40;0.50;;;;;;;;;;4972028;28;20043;-58
2022/05/24 10:39:14;;;;;;;1.65;0.47;;;;;;;;;;4977017;28;20485;-58
2022/05/24 10:41:55;;;;;;;2.78;0.40;;;;;;;;;;4982031;28;20051;-58
2022/05/24 10:44:37;;;;;;;1.83;0.63;;;;;;;;;;4976193;28;20042;-58
2022/05/24 10:47:06;;;;;;;1.25;0.52;;;;;;;;;;4979469;28;20088;-58
2022/05/24 10:49:39;;;;;;;2.35;0.50;;;;;;;;;;4981437;28;20043;-58
2022/05/24 10:52:10;;;;;;;3.60;0.90;;;;;;;;;;4980396;28;20047;-58
2022/05/24 10:54:40;;;;;;;2.80;0.73;;;;;;;;;;4981042;28;20057;-58
2022/05/24 10:57:10;;;;;;;1.95;0.40;;;;;;;;;;4972130;28;20405;-58
2022/05/24 10:59:49;;;;;;;4.63;0.60;;;;;;;;;;4977010;28;20050;-59
2022/05/24 11:02:21;;;;;;;2.10;0.80;;;;;;;;;;4978005;28;20047;-59
2022/05/24 11:04:51;;;;;;;2.78;1.00;;;;;;;;;;4985312;28;20054;-60
2022/05/24 11:07:19;;;;;;;4.25;1.20;;;;;;;;;;4968760;28;20079;-60
2022/05/24 11:09:55;;;;;;;2.55;1.08;;;;;;;;;;4972621;28;20149;-59
2022/05/24 11:12:25;;;;;;;5.68;1.58;;;;;;;;;;4975959;28;20042;-60
2022/05/24 11:14:56;;;;;;;10.68;2.40;;;;;;;;;;4971395;28;20282;-59
2022/05/24 11:17:22;;;;;;;4.43;2.28;;;;;;;;;;4984599;28;20052;-59
2022/05/24 11:19:51;;;;;;;6.38;2.85;;;;;;;;;;4983303;28;20047;-60
2022/05/24 11:22:28;;;;;;;93.47;9.10;;;;;;;;;;4982472;28;20085;-62
2022/05/24 11:25:01;;;;;;;9.95;2.25;;;;;;;;;;4979405;28;20081;-59
2022/05/24 11:27:30;;;;;;;3.25;1.83;;;;;;;;;;4970429;28;20552;-60
2022/05/24 11:29:58;;;;;;;5.35;1.63;;;;;;;;;;4972746;28;20553;-59
2022/05/24 11:32:44;;;;;;;4.75;1.50;;;;;;;;;;4980433;28;20188;-59
2022/05/24 11:35:11;;;;;;;13.07;2.38;;;;;;;;;;4976527;28;20089;-60
2022/05/24 11:37:39;;;;;;;3.50;1.20;;;;;;;;;;4982488;28;20081;-59
2022/05/24 11:40:25;;;;;;;3.78;1.50;;;;;;;;;;4979329;28;20069;-60
2022/05/24 11:42:51;;;;;;;3.50;1.15;;;;;;;;;;4985524;28;20046;-60
2022/05/24 11:45:44;;;;;;;5.03;1.42;;;;;;;;;;4984418;28;20055;-60
2022/05/24 11:48:18;;;;;;;2.25;1.10;;;;;;;;;;4966035;28;20042;-59
2022/05/24 11:50:45;;;;;;;2.85;1.00;;;;;;;;;;4966776;28;20039;-59
2022/05/24 11:53:16;;;;;;;2.77;1.17;;;;;;;;;;4996657;28;20046;-60
2022/05/24 11:55:43;;;;;;;4.10;1.25;;;;;;;;;;4965475;28;20058;-59
2022/05/24 11:58:21;;;;;;;4.30;1.23;;;;;;;;;;4981958;28;20121;-59
2022/05/24 12:00:59;;;;;;;4.03;1.20;;;;;;;;;;4965714;28;20188;-60
2022/05/24 12:09:10;;;;;;;2.97;1.45;;;;;;;;;;4975394;28;20043;-60
2022/05/24 12:11:36;;;;;;;4.32;1.30;;;;;;;;;;4984092;28;20057;-60
2022/05/24 12:14:14;;;;;;;6.80;1.30;;;;;;;;;;4983955;28;20137;-60
2022/05/24 12:16:43;;;;;;;4.18;1.50;;;;;;;;;;4983634;28;20050;-60
2022/05/24 12:19:11;;;;;;;4.15;1.60;;;;;;;;;;4971783;28;20042;-60
2022/05/24 12:21:38;;;;;;;60.88;42.28;;;;;;;;;;4973437;28;20078;-60
2022/05/24 12:24:33;;;;;;;9.30;4.93;;;;;;;;;;4983193;28;20046;-60
2022/05/24 12:27:09;;;;;;;5.18;1.45;;;;;;;;;;4975234;28;20062;-60
2022/05/24 12:29:36;;;;;;;6.95;3.08;;;;;;;;;;4969186;28;20047;-60
2022/05/24 12:32:04;;;;;;;3.05;1.35;;;;;;;;;;4965369;28;20046;-60
2022/05/24 12:34:32;;;;;;;3.75;1.20;;;;;;;;;;4965105;28;20045;-60
2022/05/24 12:36:59;;;;;;;3.47;1.10;;;;;;;;;;4972656;28;20051;-62
2022/05/24 12:39:26;;;;;;;4.97;0.90;;;;;;;;;;4964570;28;20571;-60
2022/05/24 12:41:58;;;;;;;3.33;1.23;;;;;;;;;;4975744;28;20101;-60
2022/05/24 12:44:26;;;;;;;2.05;0.52;;;;;;;;;;4974116;28;20108;-60
2022/05/24 12:46:57;;;;;;;0.27;0.20;;;;;;;;;;4977422;28;20050;-60
2022/05/24 12:49:25;;;;;;;2.30;0.40;;;;;;;;;;4975403;28;20258;-61
2022/05/24 12:51:55;;;;;;;0.65;0.30;;;;;;;;;;4974578;28;20129;-60
2022/05/24 12:54:28;;;;;;;0.85;0.35;;;;;;;;;;4969450;28;20047;-60
2022/05/24 12:57:00;;;;;;;1.80;0.30;;;;;;;;;;4979908;28;20061;-60
2022/05/24 12:59:29;;;;;;;2.22;0.50;;;;;;;;;;4981796;28;20048;-60
2022/05/24 13:01:55;;;;;;;3.05;0.68;;;;;;;;;;4980408;28;20089;-60
2022/05/24 13:04:27;;;;;;;6.22;0.80;;;;;;;;;;4977725;28;20209;-60
2022/05/24 13:06:53;;;;;;;0.77;0.57;;;;;;;;;;4978133;28;20129;-60
2022/05/24 13:09:23;;;;;;;2.95;1.00;;;;;;;;;;4985169;28;20185;-60
2022/05/24 13:11:52;;;;;;;2.30;0.70;;;;;;;;;;4968226;28;20104;-60
2022/05/24 13:14:37;;;;;;;2.10;0.70;;;;;;;;;;4967613;28;20046;-60
2022/05/24 13:17:05;;;;;;;1.98;0.70;;;;;;;;;;4978268;28;20054;-59
2022/05/24 13:19:43;;;;;;;3.17;1.20;;;;;;;;;;4973054;28;20050;-59
2022/05/24 13:22:09;;;;;;;3.67;0.77;;;;;;;;;;4974205;28;20039;-59
2022/05/24 13:24:47;;;;;;;9.25;4.03;;;;;;;;;;4969654;28;20286;-59
2022/05/24 13:27:13;;;;;;;9.57;4.72;;;;;;;;;;4977489;28;20058;-59
2022/05/24 13:35:09;;;;;;;3.83;1.10;;;;;;;;;;4987865;28;20137;-58
2022/05/24 13:37:47;;;;;;;3.85;1.38;;;;;;;;;;4983825;28;20710;-59
2022/05/24 13:40:13;;;;;;;6.10;2.88;;;;;;;;;;4988589;28;20038;-59
2022/05/24 13:42:51;;;;;;;5.80;1.50;;;;;;;;;;4987185;28;20034;-59
2022/05/24 13:45:19;;;;;;;2.92;1.60;;;;;;;;;;4969281;28;20043;-61
2022/05/24 13:47:47;;;;;;;7.93;2.92;;;;;;;;;;4986973;28;20052;-59
2022/05/24 13:50:18;;;;;;;17.50;8.75;;;;;;;;;;4987795;28;20051;-58
2022/05/24 13:52:50;;;;;;;19.02;9.57;;;;;;;;;;4987705;28;20093;-59
2022/05/24 13:55:17;;;;;;;6.43;2.30;;;;;;;;;;4986521;28;20048;-58
2022/05/24 13:57:46;;;;;;;4.32;2.10;;;;;;;;;;4970522;28;20042;-59
2022/05/24 14:00:18;;;;;;;6.85;2.97;;;;;;;;;;4970152;28;20043;-58
2022/05/24 14:02:45;;;;;;;6.65;2.38;;;;;;;;;;4969522;28;20452;-59
2022/05/24 14:05:31;;;;;;;3.10;2.10;;;;;;;;;;4970344;28;20039;-59
2022/05/24 14:07:57;;;;;;;6.07;1.50;;;;;;;;;;4972429;28;20413;-59
2022/05/24 14:10:23;;;;;;;6.07;1.83;;;;;;;;;;4968586;28;20035;-59
2022/05/24 14:12:49;;;;;;;3.00;1.70;;;;;;;;;;4969066;28;20042;-59
2022/05/24 14:15:15;;;;;;;4.30;1.75;;;;;;;;;;4977427;28;20137;-58
2022/05/24 14:17:41;;;;;;;7.95;1.90;;;;;;;;;;4968787;28;20140;-58
2022/05/24 14:20:08;;;;;;;3.78;1.75;;;;;;;;;;4969027;28;20130;-59
2022/05/24 14:22:34;;;;;;;4.40;2.22;;;;;;;;;;4968518;28;20214;-59
2022/05/24 14:25:00;;;;;;;4.78;2.30;;;;;;;;;;4974576;28;20492;-59
2022/05/24 14:27:27;;;;;;;6.05;2.10;;;;;;;;;;4971529;28;20046;-59
2022/05/24 14:29:53;;;;;;;5.30;2.03;;;;;;;;;;4974582;28;20043;-59
2022/05/24 14:32:19;;;;;;;7.35;2.00;;;;;;;;;;4970807;28;20038;-60
2022/05/24 14:34:45;;;;;;;6.63;2.53;;;;;;;;;;4979614;28;20042;-58
2022/05/24 14:37:12;;;;;;;3.97;1.83;;;;;;;;;;4974716;28;20080;-59
2022/05/24 14:39:38;;;;;;;3.45;2.10;;;;;;;;;;4973692;28;20493;-59
2022/05/24 14:42:04;;;;;;;6.28;2.25;;;;;;;;;;4973194;28;20053;-59
2022/05/24 14:44:32;;;;;;;6.13;2.15;;;;;;;;;;4986702;28;20515;-59
2022/05/24 14:46:58;;;;;;;4.68;1.83;;;;;;;;;;4974407;28;20041;-58
2022/05/24 14:49:26;;;;;;;5.45;1.73;;;;;;;;;;4985731;28;20508;-59
2022/05/24 14:51:54;;;;;;;4.60;1.52;;;;;;;;;;4984104;28;20038;-59
2022/05/24 14:54:21;;;;;;;4.82;1.70;;;;;;;;;;4981742;28;20377;-59
2022/05/24 14:56:48;;;;;;;4.13;1.75;;;;;;;;;;4967897;28;20050;-59
2022/05/24 14:59:15;;;;;;;5.38;2.17;;;;;;;;;;4967199;28;20061;-59
2022/05/24 15:01:41;;;;;;;2.28;1.65;;;;;;;;;;4967621;28;20106;-59
2022/05/24 15:04:09;;;;;;;7.20;1.60;;;;;;;;;;4978275;28;20050;-60
2022/05/24 15:06:37;;;;;;;3.50;1.50;;;;;;;;;;4986006;28;20092;-59
2022/05/24 15:15:20;;;;;;;5.65;1.67;;;;;;;;;;4972156;28;19921;-60
2022/05/24 15:17:33;;;;;;;3.63;1.60;;;;;;;;;;4966691;28;20090;-59
2022/05/24 15:20:04;;;;;;;2.35;1.13;;;;;;;;;;4972861;28;20057;-59
2022/05/24 15:22:30;;;;;;;4.95;2.15;;;;;;;;;;4984145;28;20509;-59
2022/05/24 15:24:57;;;;;;;3.25;1.40;;;;;;;;;;4970973;28;20153;-59
2022/05/24 15:27:23;;;;;;;3.85;0.93;;;;;;;;;;4967219;28;20054;-59
2022/05/24 15:29:49;;;;;;;2.15;0.85;;;;;;;;;;4966452;28;20043;-59
2022/05/24 15:32:15;;;;;;;3.95;1.02;;;;;;;;;;4968967;28;20089;-59
2022/05/24 15:34:42;;;;;;;1.88;0.90;;;;;;;;;;4985057;28;20485;-59
2022/05/24 15:37:08;;;;;;;6.60;1.17;;;;;;;;;;4985681;28;20440;-59